sensor_id;sensor_type;location;lat;lon;timestamp;temperature;humidity
13569;DHT22;6856;51.460;7.158;2023-11-22T00:01:12;9.90;67.70
13569;DHT22;6856;51.460;7.158;2023-11-22T00:03:46;9.90;67.70
13569;DHT22;6856;51.460;7.158;2023-11-22T00:06:20;10.10;67.80
13569;DHT22;6856;51.460;7.158;2023-11-22T00:08:53;9.80;67.50
13569;DHT22;6856;51.460;7.158;2023-11-22T00:11:28;9.80;67.30
13569;DHT22;6856;51.460;7.158;2023-11-22T00:14:02;9.90;67.20
13569;DHT22;6856;51.460;7.158;2023-11-22T00:16:36;9.80;67.30
13569;DHT22;6856;51.460;7.158;2023-11-22T00:19:12;9.80;67.20
13569;DHT22;6856;51.460;7.158;2023-11-22T00:21:49;9.80;67.30
13569;DHT22;6856;51.460;7.158;2023-11-22T00:24:28;9.80;67.10
13569;DHT22;6856;51.460;7.158;2023-11-22T00:27:05;9.70;67.10
13569;DHT22;6856;51.460;7.158;2023-11-22T00:29:39;9.70;67.20
13569;DHT22;6856;51.460;7.158;2023-11-22T00:32:14;9.70;67.20
13569;DHT22;6856;51.460;7.158;2023-11-22T00:34:47;9.90;67.20
13569;DHT22;6856;51.460;7.158;2023-11-22T00:37:21;9.60;67.30
13569;DHT22;6856;51.460;7.158;2023-11-22T00:39:54;9.90;67.50
13569;DHT22;6856;51.460;7.158;2023-11-22T00:42:30;9.90;67.50
13569;DHT22;6856;51.460;7.158;2023-11-22T00:45:06;9.60;67.30
13569;DHT22;6856;51.460;7.158;2023-11-22T00:47:40;9.60;67.50
13569;DHT22;6856;51.460;7.158;2023-11-22T00:50:14;9.60;67.40
13569;DHT22;6856;51.460;7.158;2023-11-22T00:52:51;9.50;67.60
13569;DHT22;6856;51.460;7.158;2023-11-22T00:55:26;9.60;67.70
13569;DHT22;6856;51.460;7.158;2023-11-22T00:58:01;9.60;67.70
13569;DHT22;6856;51.460;7.158;2023-11-22T01:00:36;9.60;67.60
13569;DHT22;6856;51.460;7.158;2023-11-22T01:03:10;9.60;67.50
13569;DHT22;6856;51.460;7.158;2023-11-22T01:05:44;9.60;67.50
13569;DHT22;6856;51.460;7.158;2023-11-22T01:08:18;9.80;67.60
13569;DHT22;6856;51.460;7.158;2023-11-22T01:10:52;9.50;67.40
13569;DHT22;6856;51.460;7.158;2023-11-22T01:13:28;9.50;67.40
13569;DHT22;6856;51.460;7.158;2023-11-22T01:16:03;9.50;67.40
13569;DHT22;6856;51.460;7.158;2023-11-22T01:18:37;9.50;67.40
13569;DHT22;6856;51.460;7.158;2023-11-22T01:21:13;9.50;67.20
13569;DHT22;6856;51.460;7.158;2023-11-22T01:23:47;9.40;67.10
13569;DHT22;6856;51.460;7.158;2023-11-22T01:26:21;9.40;67.00
13569;DHT22;6856;51.460;7.158;2023-11-22T01:28:58;9.60;67.20
13569;DHT22;6856;51.460;7.158;2023-11-22T01:31:34;9.40;67.20
13569;DHT22;6856;51.460;7.158;2023-11-22T01:34:12;9.50;67.40
13569;DHT22;6856;51.460;7.158;2023-11-22T01:36:49;9.50;67.40
13569;DHT22;6856;51.460;7.158;2023-11-22T01:39:23;9.40;67.60
13569;DHT22;6856;51.460;7.158;2023-11-22T01:41:58;9.50;67.60
13569;DHT22;6856;51.460;7.158;2023-11-22T01:44:33;9.40;67.50
13569;DHT22;6856;51.460;7.158;2023-11-22T01:47:07;9.40;67.40
13569;DHT22;6856;51.460;7.158;2023-11-22T01:49:41;9.30;67.30
13569;DHT22;6856;51.460;7.158;2023-11-22T01:52:14;9.30;67.20
13569;DHT22;6856;51.460;7.158;2023-11-22T01:54:49;9.30;67.30
13569;DHT22;6856;51.460;7.158;2023-11-22T01:57:24;9.30;67.20
13569;DHT22;6856;51.460;7.158;2023-11-22T02:00:00;9.30;67.20
13569;DHT22;6856;51.460;7.158;2023-11-22T02:02:35;9.30;67.40
13569;DHT22;6856;51.460;7.158;2023-11-22T02:05:09;9.30;67.50
13569;DHT22;6856;51.460;7.158;2023-11-22T02:07:44;9.30;67.40
13569;DHT22;6856;51.460;7.158;2023-11-22T02:10:17;9.30;67.50
13569;DHT22;6856;51.460;7.158;2023-11-22T02:12:51;9.20;67.40
13569;DHT22;6856;51.460;7.158;2023-11-22T02:15:26;9.30;67.40
13569;DHT22;6856;51.460;7.158;2023-11-22T02:18:00;9.20;67.30
13569;DHT22;6856;51.460;7.158;2023-11-22T02:20:43;9.20;67.40
13569;DHT22;6856;51.460;7.158;2023-11-22T02:23:19;9.20;67.30
13569;DHT22;6856;51.460;7.158;2023-11-22T02:25:53;9.20;67.10
13569;DHT22;6856;51.460;7.158;2023-11-22T02:28:27;9.20;66.80
13569;DHT22;6856;51.460;7.158;2023-11-22T02:31:01;9.10;67.30
13569;DHT22;6856;51.460;7.158;2023-11-22T02:33:35;9.40;67.40
13569;DHT22;6856;51.460;7.158;2023-11-22T02:36:08;9.10;67.10
13569;DHT22;6856;51.460;7.158;2023-11-22T02:38:46;9.10;67.10
13569;DHT22;6856;51.460;7.158;2023-11-22T02:41:19;9.10;67.10
13569;DHT22;6856;51.460;7.158;2023-11-22T02:43:53;9.10;67.30
13569;DHT22;6856;51.460;7.158;2023-11-22T02:46:27;9.00;67.30
13569;DHT22;6856;51.460;7.158;2023-11-22T02:49:00;9.00;67.30
13569;DHT22;6856;51.460;7.158;2023-11-22T02:51:34;9.00;67.20
13569;DHT22;6856;51.460;7.158;2023-11-22T02:54:09;9.00;67.10
13569;DHT22;6856;51.460;7.158;2023-11-22T02:56:43;9.00;67.20
13569;DHT22;6856;51.460;7.158;2023-11-22T02:59:16;9.00;67.10
13569;DHT22;6856;51.460;7.158;2023-11-22T03:01:51;8.90;67.00
13569;DHT22;6856;51.460;7.158;2023-11-22T03:04:24;8.90;66.90
13569;DHT22;6856;51.460;7.158;2023-11-22T03:06:58;8.90;67.10
13569;DHT22;6856;51.460;7.158;2023-11-22T03:09:34;8.90;67.10
13569;DHT22;6856;51.460;7.158;2023-11-22T03:12:08;9.00;67.30
13569;DHT22;6856;51.460;7.158;2023-11-22T03:14:44;8.90;67.20
13569;DHT22;6856;51.460;7.158;2023-11-22T03:17:18;8.80;67.20
13569;DHT22;6856;51.460;7.158;2023-11-22T03:19:52;8.80;67.10
13569;DHT22;6856;51.460;7.158;2023-11-22T03:22:26;8.80;67.00
13569;DHT22;6856;51.460;7.158;2023-11-22T03:25:04;8.80;67.10
13569;DHT22;6856;51.460;7.158;2023-11-22T03:27:38;8.80;67.00
13569;DHT22;6856;51.460;7.158;2023-11-22T03:30:15;8.80;66.90
13569;DHT22;6856;51.460;7.158;2023-11-22T03:32:49;8.70;66.90
13569;DHT22;6856;51.460;7.158;2023-11-22T03:35:23;8.70;66.90
13569;DHT22;6856;51.460;7.158;2023-11-22T03:37:56;8.70;67.00
13569;DHT22;6856;51.460;7.158;2023-11-22T03:40:32;8.70;66.80
13569;DHT22;6856;51.460;7.158;2023-11-22T03:43:06;8.70;66.50
13569;DHT22;6856;51.460;7.158;2023-11-22T03:45:42;8.70;66.70
13569;DHT22;6856;51.460;7.158;2023-11-22T03:48:15;8.90;66.70
13569;DHT22;6856;51.460;7.158;2023-11-22T03:50:51;8.70;66.60
13569;DHT22;6856;51.460;7.158;2023-11-22T03:53:25;8.60;66.70
13569;DHT22;6856;51.460;7.158;2023-11-22T03:56:00;8.60;66.70
13569;DHT22;6856;51.460;7.158;2023-11-22T03:58:33;8.60;66.70
13569;DHT22;6856;51.460;7.158;2023-11-22T04:01:06;8.60;66.60
13569;DHT22;6856;51.460;7.158;2023-11-22T04:03:40;8.60;66.60
13569;DHT22;6856;51.460;7.158;2023-11-22T04:06:14;8.60;66.60
13569;DHT22;6856;51.460;7.158;2023-11-22T04:08:49;8.60;66.60
13569;DHT22;6856;51.460;7.158;2023-11-22T04:11:24;8.50;66.50
13569;DHT22;6856;51.460;7.158;2023-11-22T04:14:00;8.50;66.40
13569;DHT22;6856;51.460;7.158;2023-11-22T04:16:37;8.50;66.40
13569;DHT22;6856;51.460;7.158;2023-11-22T04:19:10;8.50;66.20
13569;DHT22;6856;51.460;7.158;2023-11-22T04:21:45;8.50;66.20
13569;DHT22;6856;51.460;7.158;2023-11-22T04:24:18;8.70;66.30
13569;DHT22;6856;51.460;7.158;2023-11-22T04:26:54;8.50;66.10
13569;DHT22;6856;51.460;7.158;2023-11-22T04:29:27;8.40;65.90
13569;DHT22;6856;51.460;7.158;2023-11-22T04:32:02;8.40;66.00
13569;DHT22;6856;51.460;7.158;2023-11-22T04:34:37;8.40;66.10
13569;DHT22;6856;51.460;7.158;2023-11-22T04:37:10;8.40;66.00
13569;DHT22;6856;51.460;7.158;2023-11-22T04:39:44;8.30;65.90
13569;DHT22;6856;51.460;7.158;2023-11-22T04:42:23;8.30;65.90
13569;DHT22;6856;51.460;7.158;2023-11-22T04:44:58;8.30;65.90
13569;DHT22;6856;51.460;7.158;2023-11-22T04:47:32;8.30;65.90
13569;DHT22;6856;51.460;7.158;2023-11-22T04:50:06;8.20;65.90
13569;DHT22;6856;51.460;7.158;2023-11-22T04:52:41;8.20;65.90
13569;DHT22;6856;51.460;7.158;2023-11-22T04:55:16;8.20;66.00
13569;DHT22;6856;51.460;7.158;2023-11-22T04:57:54;8.20;65.90
13569;DHT22;6856;51.460;7.158;2023-11-22T05:00:27;8.20;65.90
13569;DHT22;6856;51.460;7.158;2023-11-22T05:03:01;8.20;65.90
13569;DHT22;6856;51.460;7.158;2023-11-22T05:05:36;8.10;65.80
13569;DHT22;6856;51.460;7.158;2023-11-22T05:08:09;8.10;65.80
13569;DHT22;6856;51.460;7.158;2023-11-22T05:10:43;8.10;65.70
13569;DHT22;6856;51.460;7.158;2023-11-22T05:13:18;8.10;65.70
13569;DHT22;6856;51.460;7.158;2023-11-22T05:15:55;8.10;65.70
13569;DHT22;6856;51.460;7.158;2023-11-22T05:18:28;7.80;65.50
13569;DHT22;6856;51.460;7.158;2023-11-22T05:21:03;8.10;65.70
13569;DHT22;6856;51.460;7.158;2023-11-22T05:23:37;8.00;65.60
13569;DHT22;6856;51.460;7.158;2023-11-22T05:26:13;8.00;65.60
13569;DHT22;6856;51.460;7.158;2023-11-22T05:28:48;8.00;65.60
13569;DHT22;6856;51.460;7.158;2023-11-22T05:31:24;8.00;65.60
13569;DHT22;6856;51.460;7.158;2023-11-22T05:33:58;8.00;65.50
13569;DHT22;6856;51.460;7.158;2023-11-22T05:36:32;7.90;65.50
13569;DHT22;6856;51.460;7.158;2023-11-22T05:39:06;7.90;65.50
13569;DHT22;6856;51.460;7.158;2023-11-22T05:41:40;7.90;65.50
13569;DHT22;6856;51.460;7.158;2023-11-22T05:44:15;7.90;65.50
13569;DHT22;6856;51.460;7.158;2023-11-22T05:46:49;7.80;65.30
13569;DHT22;6856;51.460;7.158;2023-11-22T05:49:23;7.80;65.40
13569;DHT22;6856;51.460;7.158;2023-11-22T05:51:57;7.80;65.50
13569;DHT22;6856;51.460;7.158;2023-11-22T05:54:31;7.80;65.30
13569;DHT22;6856;51.460;7.158;2023-11-22T05:57:05;7.80;65.40
13569;DHT22;6856;51.460;7.158;2023-11-22T05:59:40;7.70;65.20
13569;DHT22;6856;51.460;7.158;2023-11-22T06:02:14;7.70;65.30
13569;DHT22;6856;51.460;7.158;2023-11-22T06:04:47;7.80;65.30
13569;DHT22;6856;51.460;7.158;2023-11-22T06:07:22;7.70;65.20
13569;DHT22;6856;51.460;7.158;2023-11-22T06:09:56;7.60;65.20
13569;DHT22;6856;51.460;7.158;2023-11-22T06:12:29;7.70;65.20
13569;DHT22;6856;51.460;7.158;2023-11-22T06:15:06;7.60;65.10
13569;DHT22;6856;51.460;7.158;2023-11-22T06:17:41;7.60;65.20
13569;DHT22;6856;51.460;7.158;2023-11-22T06:20:15;7.60;65.20
13569;DHT22;6856;51.460;7.158;2023-11-22T06:22:49;7.50;65.10
13569;DHT22;6856;51.460;7.158;2023-11-22T06:25:22;7.60;65.10
13569;DHT22;6856;51.460;7.158;2023-11-22T06:27:57;7.80;65.20
13569;DHT22;6856;51.460;7.158;2023-11-22T06:30:35;7.50;65.00
13569;DHT22;6856;51.460;7.158;2023-11-22T06:33:14;7.50;65.00
13569;DHT22;6856;51.460;7.158;2023-11-22T06:35:48;7.50;65.00
13569;DHT22;6856;51.460;7.158;2023-11-22T06:38:21;7.40;64.90
13569;DHT22;6856;51.460;7.158;2023-11-22T06:40:55;7.40;64.90
13569;DHT22;6856;51.460;7.158;2023-11-22T06:43:29;7.40;64.90
13569;DHT22;6856;51.460;7.158;2023-11-22T06:46:04;7.40;65.00
13569;DHT22;6856;51.460;7.158;2023-11-22T06:48:39;7.30;64.90
13569;DHT22;6856;51.460;7.158;2023-11-22T06:51:15;7.30;64.90
13569;DHT22;6856;51.460;7.158;2023-11-22T06:53:50;7.30;65.00
13569;DHT22;6856;51.460;7.158;2023-11-22T06:56:24;7.30;64.80
13569;DHT22;6856;51.460;7.158;2023-11-22T06:58:58;7.30;64.80
13569;DHT22;6856;51.460;7.158;2023-11-22T07:01:33;7.20;64.70
13569;DHT22;6856;51.460;7.158;2023-11-22T07:04:07;7.20;64.60
13569;DHT22;6856;51.460;7.158;2023-11-22T07:06:40;7.50;64.90
13569;DHT22;6856;51.460;7.158;2023-11-22T07:09:16;7.10;64.60
13569;DHT22;6856;51.460;7.158;2023-11-22T07:11:49;7.10;64.50
13569;DHT22;6856;51.460;7.158;2023-11-22T07:14:23;7.10;64.60
13569;DHT22;6856;51.460;7.158;2023-11-22T07:17:00;7.30;64.80
13569;DHT22;6856;51.460;7.158;2023-11-22T07:19:35;7.20;64.60
13569;DHT22;6856;51.460;7.158;2023-11-22T07:22:10;7.30;64.80
13569;DHT22;6856;51.460;7.158;2023-11-22T07:24:48;7.00;64.50
13569;DHT22;6856;51.460;7.158;2023-11-22T07:27:23;6.90;64.60
13569;DHT22;6856;51.460;7.158;2023-11-22T07:29:58;6.90;64.60
13569;DHT22;6856;51.460;7.158;2023-11-22T07:32:34;6.90;64.60
13569;DHT22;6856;51.460;7.158;2023-11-22T07:35:09;6.90;64.60
13569;DHT22;6856;51.460;7.158;2023-11-22T07:37:44;6.90;64.50
13569;DHT22;6856;51.460;7.158;2023-11-22T07:40:17;6.80;64.60
13569;DHT22;6856;51.460;7.158;2023-11-22T07:42:54;6.80;64.60
13569;DHT22;6856;51.460;7.158;2023-11-22T07:45:28;6.80;64.70
13569;DHT22;6856;51.460;7.158;2023-11-22T07:48:04;6.80;64.80
13569;DHT22;6856;51.460;7.158;2023-11-22T07:50:38;6.80;64.90
13569;DHT22;6856;51.460;7.158;2023-11-22T07:53:12;6.80;64.90
13569;DHT22;6856;51.460;7.158;2023-11-22T07:55:46;6.80;65.00
13569;DHT22;6856;51.460;7.158;2023-11-22T07:58:20;6.80;65.10
13569;DHT22;6856;51.460;7.158;2023-11-22T08:00:54;6.80;65.20
13569;DHT22;6856;51.460;7.158;2023-11-22T08:03:29;6.80;65.30
13569;DHT22;6856;51.460;7.158;2023-11-22T08:06:03;6.80;65.30
13569;DHT22;6856;51.460;7.158;2023-11-22T08:08:38;6.80;65.50
13569;DHT22;6856;51.460;7.158;2023-11-22T08:11:12;6.90;65.50
13569;DHT22;6856;51.460;7.158;2023-11-22T08:13:48;6.90;65.60
13569;DHT22;6856;51.460;7.158;2023-11-22T08:16:22;6.90;65.70
13569;DHT22;6856;51.460;7.158;2023-11-22T08:18:58;6.90;66.40
13569;DHT22;6856;51.460;7.158;2023-11-22T08:21:32;6.90;65.70
13569;DHT22;6856;51.460;7.158;2023-11-22T08:24:06;7.00;65.90
13569;DHT22;6856;51.460;7.158;2023-11-22T08:26:40;7.00;65.90
13569;DHT22;6856;51.460;7.158;2023-11-22T08:29:13;7.00;65.80
13569;DHT22;6856;51.460;7.158;2023-11-22T08:31:48;7.10;65.80
13569;DHT22;6856;51.460;7.158;2023-11-22T08:34:24;7.10;65.70
13569;DHT22;6856;51.460;7.158;2023-11-22T08:36:57;7.10;65.70
13569;DHT22;6856;51.460;7.158;2023-11-22T08:39:31;7.10;65.80
13569;DHT22;6856;51.460;7.158;2023-11-22T08:42:05;7.40;66.60
13569;DHT22;6856;51.460;7.158;2023-11-22T08:44:41;7.20;65.70
13569;DHT22;6856;51.460;7.158;2023-11-22T08:47:15;7.20;65.50
13569;DHT22;6856;51.460;7.158;2023-11-22T08:49:52;7.20;65.40
13569;DHT22;6856;51.460;7.158;2023-11-22T08:52:26;7.20;65.40
13569;DHT22;6856;51.460;7.158;2023-11-22T08:55:03;7.20;65.50
13569;DHT22;6856;51.460;7.158;2023-11-22T08:57:39;7.20;65.40
13569;DHT22;6856;51.460;7.158;2023-11-22T09:00:14;7.20;65.40
13569;DHT22;6856;51.460;7.158;2023-11-22T09:02:55;7.20;65.40
13569;DHT22;6856;51.460;7.158;2023-11-22T09:05:31;7.30;65.50
13569;DHT22;6856;51.460;7.158;2023-11-22T09:08:06;7.30;65.40
13569;DHT22;6856;51.460;7.158;2023-11-22T09:10:56;7.30;65.40
13569;DHT22;6856;51.460;7.158;2023-11-22T09:13:30;7.30;65.40
13569;DHT22;6856;51.460;7.158;2023-11-22T09:16:04;7.60;65.60
13569;DHT22;6856;51.460;7.158;2023-11-22T09:18:40;7.30;65.40
13569;DHT22;6856;51.460;7.158;2023-11-22T09:21:16;7.40;65.40
13569;DHT22;6856;51.460;7.158;2023-11-22T09:23:50;7.40;65.40
13569;DHT22;6856;51.460;7.158;2023-11-22T09:26:24;7.40;65.10
13569;DHT22;6856;51.460;7.158;2023-11-22T09:28:58;7.50;64.80
13569;DHT22;6856;51.460;7.158;2023-11-22T09:31:32;7.50;64.50
13569;DHT22;6856;51.460;7.158;2023-11-22T09:34:05;7.50;64.00
13569;DHT22;6856;51.460;7.158;2023-11-22T09:36:41;7.50;63.50
13569;DHT22;6856;51.460;7.158;2023-11-22T09:39:14;7.60;64.10
13569;DHT22;6856;51.460;7.158;2023-11-22T09:41:57;7.60;63.30
13569;DHT22;6856;51.460;7.158;2023-11-22T09:44:31;7.60;63.00
13569;DHT22;6856;51.460;7.158;2023-11-22T09:47:05;7.60;62.70
13569;DHT22;6856;51.460;7.158;2023-11-22T09:49:40;7.60;62.40
13569;DHT22;6856;51.460;7.158;2023-11-22T09:52:23;7.70;62.40
13569;DHT22;6856;51.460;7.158;2023-11-22T09:55:03;7.70;63.10
13569;DHT22;6856;51.460;7.158;2023-11-22T09:57:39;7.70;62.40
13569;DHT22;6856;51.460;7.158;2023-11-22T10:00:14;7.70;62.30
13569;DHT22;6856;51.460;7.158;2023-11-22T10:02:50;7.80;62.20
13569;DHT22;6856;51.460;7.158;2023-11-22T10:05:24;7.80;61.70
13569;DHT22;6856;51.460;7.158;2023-11-22T10:08:02;7.80;61.90
13569;DHT22;6856;51.460;7.158;2023-11-22T10:10:37;7.80;61.80
13569;DHT22;6856;51.460;7.158;2023-11-22T10:13:13;8.10;62.00
13569;DHT22;6856;51.460;7.158;2023-11-22T10:15:47;7.90;61.50
13569;DHT22;6856;51.460;7.158;2023-11-22T10:18:21;7.90;61.30
13569;DHT22;6856;51.460;7.158;2023-11-22T10:20:57;7.90;61.50
13569;DHT22;6856;51.460;7.158;2023-11-22T10:23:40;7.90;61.60
13569;DHT22;6856;51.460;7.158;2023-11-22T10:26:14;7.90;61.50
13569;DHT22;6856;51.460;7.158;2023-11-22T10:28:51;7.90;61.20
13569;DHT22;6856;51.460;7.158;2023-11-22T10:31:26;8.00;60.80
13569;DHT22;6856;51.460;7.158;2023-11-22T10:34:00;8.00;60.80
13569;DHT22;6856;51.460;7.158;2023-11-22T10:36:36;8.00;61.00
13569;DHT22;6856;51.460;7.158;2023-11-22T10:39:11;8.00;60.70
13569;DHT22;6856;51.460;7.158;2023-11-22T10:41:49;8.10;60.90
13569;DHT22;6856;51.460;7.158;2023-11-22T10:44:23;8.10;61.10
13569;DHT22;6856;51.460;7.158;2023-11-22T10:46:57;8.20;60.60
13569;DHT22;6856;51.460;7.158;2023-11-22T10:49:32;8.20;60.20
13569;DHT22;6856;51.460;7.158;2023-11-22T10:52:11;8.20;60.00
13569;DHT22;6856;51.460;7.158;2023-11-22T10:54:50;8.30;60.40
13569;DHT22;6856;51.460;7.158;2023-11-22T10:57:39;8.30;60.50
13569;DHT22;6856;51.460;7.158;2023-11-22T11:00:19;8.40;60.20
13569;DHT22;6856;51.460;7.158;2023-11-22T11:02:59;8.40;59.90
13569;DHT22;6856;51.460;7.158;2023-11-22T11:05:46;8.40;60.30
13569;DHT22;6856;51.460;7.158;2023-11-22T11:08:25;8.50;59.80
13569;DHT22;6856;51.460;7.158;2023-11-22T11:11:04;8.50;59.80
13569;DHT22;6856;51.460;7.158;2023-11-22T11:13:39;8.50;59.60
13569;DHT22;6856;51.460;7.158;2023-11-22T11:16:14;8.60;59.40
13569;DHT22;6856;51.460;7.158;2023-11-22T11:18:49;8.60;59.10
13569;DHT22;6856;51.460;7.158;2023-11-22T11:21:25;8.80;59.40
13569;DHT22;6856;51.460;7.158;2023-11-22T11:24:01;8.70;59.30
13569;DHT22;6856;51.460;7.158;2023-11-22T11:26:37;8.70;59.10
13569;DHT22;6856;51.460;7.158;2023-11-22T11:29:29;8.90;58.70
13569;DHT22;6856;51.460;7.158;2023-11-22T11:32:04;8.80;58.90
13569;DHT22;6856;51.460;7.158;2023-11-22T11:34:48;8.80;59.00
13569;DHT22;6856;51.460;7.158;2023-11-22T11:37:23;8.80;58.80
13569;DHT22;6856;51.460;7.158;2023-11-22T11:39:58;8.90;58.80
13569;DHT22;6856;51.460;7.158;2023-11-22T11:42:33;8.90;58.60
13569;DHT22;6856;51.460;7.158;2023-11-22T11:45:08;8.90;58.60
13569;DHT22;6856;51.460;7.158;2023-11-22T11:47:44;8.90;58.50
13569;DHT22;6856;51.460;7.158;2023-11-22T11:50:20;8.90;58.40
13569;DHT22;6856;51.460;7.158;2023-11-22T11:52:54;9.00;58.80
13569;DHT22;6856;51.460;7.158;2023-11-22T11:55:28;9.00;58.70
13569;DHT22;6856;51.460;7.158;2023-11-22T11:58:06;9.00;58.10
13569;DHT22;6856;51.460;7.158;2023-11-22T12:00:41;9.10;57.40
13569;DHT22;6856;51.460;7.158;2023-11-22T12:03:15;9.10;57.40
13569;DHT22;6856;51.460;7.158;2023-11-22T12:05:54;9.10;57.10
13569;DHT22;6856;51.460;7.158;2023-11-22T12:08:28;9.20;57.40
13569;DHT22;6856;51.460;7.158;2023-11-22T12:11:06;9.10;57.30
13569;DHT22;6856;51.460;7.158;2023-11-22T12:13:43;9.10;57.60
13569;DHT22;6856;51.460;7.158;2023-11-22T12:16:19;9.10;57.30
13569;DHT22;6856;51.460;7.158;2023-11-22T12:18:53;9.10;56.80
13569;DHT22;6856;51.460;7.158;2023-11-22T12:21:30;9.10;56.20
13569;DHT22;6856;51.460;7.158;2023-11-22T12:24:05;9.10;56.00
13569;DHT22;6856;51.460;7.158;2023-11-22T12:26:45;9.10;56.30
13569;DHT22;6856;51.460;7.158;2023-11-22T12:29:23;9.50;57.10
13569;DHT22;6856;51.460;7.158;2023-11-22T12:31:58;9.20;57.00
13569;DHT22;6856;51.460;7.158;2023-11-22T12:34:32;9.30;56.90
13569;DHT22;6856;51.460;7.158;2023-11-22T12:37:06;9.50;57.40
13569;DHT22;6856;51.460;7.158;2023-11-22T12:39:40;9.50;57.40
13569;DHT22;6856;51.460;7.158;2023-11-22T12:42:15;9.70;57.40
13569;DHT22;6856;51.460;7.158;2023-11-22T12:44:51;9.70;57.50
13569;DHT22;6856;51.460;7.158;2023-11-22T12:47:33;9.80;57.50
13569;DHT22;6856;51.460;7.158;2023-11-22T12:50:29;9.80;56.90
13569;DHT22;6856;51.460;7.158;2023-11-22T12:53:10;9.90;56.60
13569;DHT22;6856;51.460;7.158;2023-11-22T12:55:45;10.00;56.50
13569;DHT22;6856;51.460;7.158;2023-11-22T12:58:22;10.00;56.20
13569;DHT22;6856;51.460;7.158;2023-11-22T13:00:58;10.00;56.80
13569;DHT22;6856;51.460;7.158;2023-11-22T13:03:33;10.00;56.30
13569;DHT22;6856;51.460;7.158;2023-11-22T13:06:07;10.00;56.20
13569;DHT22;6856;51.460;7.158;2023-11-22T13:08:41;10.00;55.90
13569;DHT22;6856;51.460;7.158;2023-11-22T13:11:14;10.00;55.70
13569;DHT22;6856;51.460;7.158;2023-11-22T13:13:48;10.00;56.20
13569;DHT22;6856;51.460;7.158;2023-11-22T13:16:23;9.90;55.50
13569;DHT22;6856;51.460;7.158;2023-11-22T13:18:58;9.90;55.50
13569;DHT22;6856;51.460;7.158;2023-11-22T13:21:31;10.00;55.90
13569;DHT22;6856;51.460;7.158;2023-11-22T13:24:06;9.90;55.80
13569;DHT22;6856;51.460;7.158;2023-11-22T13:26:41;9.90;55.30
13569;DHT22;6856;51.460;7.158;2023-11-22T13:29:15;9.90;54.60
13569;DHT22;6856;51.460;7.158;2023-11-22T13:31:50;9.90;54.50
13569;DHT22;6856;51.460;7.158;2023-11-22T13:34:24;9.80;55.40
13569;DHT22;6856;51.460;7.158;2023-11-22T13:36:57;9.80;54.70
13569;DHT22;6856;51.460;7.158;2023-11-22T13:39:31;9.80;54.60
13569;DHT22;6856;51.460;7.158;2023-11-22T13:42:05;9.80;54.70
13569;DHT22;6856;51.460;7.158;2023-11-22T13:44:39;9.70;54.60
13569;DHT22;6856;51.460;7.158;2023-11-22T13:47:14;9.70;54.90
13569;DHT22;6856;51.460;7.158;2023-11-22T13:49:48;9.70;54.40
13569;DHT22;6856;51.460;7.158;2023-11-22T13:52:22;9.60;54.70
13569;DHT22;6856;51.460;7.158;2023-11-22T13:54:56;9.60;54.70
13569;DHT22;6856;51.460;7.158;2023-11-22T13:57:31;9.60;54.70
13569;DHT22;6856;51.460;7.158;2023-11-22T14:00:06;9.50;54.60
13569;DHT22;6856;51.460;7.158;2023-11-22T14:02:53;9.50;54.90
13569;DHT22;6856;51.460;7.158;2023-11-22T14:05:29;9.50;54.80
13569;DHT22;6856;51.460;7.158;2023-11-22T14:08:04;9.50;54.60
13569;DHT22;6856;51.460;7.158;2023-11-22T14:10:39;9.40;54.60
13569;DHT22;6856;51.460;7.158;2023-11-22T14:13:12;9.40;54.40
13569;DHT22;6856;51.460;7.158;2023-11-22T14:15:48;9.40;54.40
13569;DHT22;6856;51.460;7.158;2023-11-22T14:18:23;9.40;54.60
13569;DHT22;6856;51.460;7.158;2023-11-22T14:20:57;9.40;54.80
13569;DHT22;6856;51.460;7.158;2023-11-22T14:23:38;9.40;54.80
13569;DHT22;6856;51.460;7.158;2023-11-22T14:26:12;9.40;54.60
13569;DHT22;6856;51.460;7.158;2023-11-22T14:28:46;9.40;54.80
13569;DHT22;6856;51.460;7.158;2023-11-22T14:31:20;9.40;54.80
13569;DHT22;6856;51.460;7.158;2023-11-22T14:33:55;9.30;54.60
13569;DHT22;6856;51.460;7.158;2023-11-22T14:36:30;9.30;54.60
13569;DHT22;6856;51.460;7.158;2023-11-22T14:39:04;9.30;54.70
13569;DHT22;6856;51.460;7.158;2023-11-22T14:41:39;9.30;54.80
13569;DHT22;6856;51.460;7.158;2023-11-22T14:44:13;9.30;54.70
13569;DHT22;6856;51.460;7.158;2023-11-22T14:46:47;9.40;54.70
13569;DHT22;6856;51.460;7.158;2023-11-22T14:49:23;9.20;54.70
13569;DHT22;6856;51.460;7.158;2023-11-22T14:51:57;9.30;54.70
13569;DHT22;6856;51.460;7.158;2023-11-22T14:54:32;9.20;54.80
13569;DHT22;6856;51.460;7.158;2023-11-22T14:57:05;9.20;54.90
13569;DHT22;6856;51.460;7.158;2023-11-22T14:59:43;9.20;54.90
13569;DHT22;6856;51.460;7.158;2023-11-22T15:02:18;9.20;55.40
13569;DHT22;6856;51.460;7.158;2023-11-22T15:04:54;9.20;55.20
13569;DHT22;6856;51.460;7.158;2023-11-22T15:07:28;9.20;55.30
13569;DHT22;6856;51.460;7.158;2023-11-22T15:10:03;9.20;55.20
13569;DHT22;6856;51.460;7.158;2023-11-22T15:12:38;9.20;55.20
13569;DHT22;6856;51.460;7.158;2023-11-22T15:15:14;9.20;55.30
13569;DHT22;6856;51.460;7.158;2023-11-22T15:17:48;9.20;55.40
13569;DHT22;6856;51.460;7.158;2023-11-22T15:20:24;9.20;55.20
13569;DHT22;6856;51.460;7.158;2023-11-22T15:22:58;9.10;55.00
13569;DHT22;6856;51.460;7.158;2023-11-22T15:25:32;9.10;55.00
13569;DHT22;6856;51.460;7.158;2023-11-22T15:28:05;9.10;55.70
13569;DHT22;6856;51.460;7.158;2023-11-22T15:30:41;9.10;55.40
13569;DHT22;6856;51.460;7.158;2023-11-22T15:33:15;9.10;55.50
13569;DHT22;6856;51.460;7.158;2023-11-22T15:35:50;9.10;55.60
13569;DHT22;6856;51.460;7.158;2023-11-22T15:38:24;9.30;55.70
13569;DHT22;6856;51.460;7.158;2023-11-22T15:40:57;9.10;55.40
13569;DHT22;6856;51.460;7.158;2023-11-22T15:43:46;9.30;55.60
13569;DHT22;6856;51.460;7.158;2023-11-22T15:46:20;9.10;55.50
13569;DHT22;6856;51.460;7.158;2023-11-22T15:48:56;9.10;55.50
13569;DHT22;6856;51.460;7.158;2023-11-22T15:51:31;9.00;55.40
13569;DHT22;6856;51.460;7.158;2023-11-22T15:54:05;9.30;55.50
13569;DHT22;6856;51.460;7.158;2023-11-22T15:56:43;9.00;55.50
13569;DHT22;6856;51.460;7.158;2023-11-22T15:59:18;9.00;55.60
13569;DHT22;6856;51.460;7.158;2023-11-22T16:01:52;9.00;55.50
13569;DHT22;6856;51.460;7.158;2023-11-22T16:04:25;9.00;55.60
13569;DHT22;6856;51.460;7.158;2023-11-22T16:07:02;9.00;55.70
13569;DHT22;6856;51.460;7.158;2023-11-22T16:09:35;9.00;56.00
13569;DHT22;6856;51.460;7.158;2023-11-22T16:12:11;8.90;56.10
13569;DHT22;6856;51.460;7.158;2023-11-22T16:14:50;8.90;56.20
13569;DHT22;6856;51.460;7.158;2023-11-22T16:17:25;8.90;56.20
13569;DHT22;6856;51.460;7.158;2023-11-22T16:19:59;8.90;56.20
13569;DHT22;6856;51.460;7.158;2023-11-22T16:23:05;9.00;56.30
13569;DHT22;6856;51.460;7.158;2023-11-22T16:25:39;8.90;56.30
13569;DHT22;6856;51.460;7.158;2023-11-22T16:28:13;8.90;56.30
13569;DHT22;6856;51.460;7.158;2023-11-22T16:30:47;8.90;56.50
13569;DHT22;6856;51.460;7.158;2023-11-22T16:33:21;8.80;56.50
13569;DHT22;6856;51.460;7.158;2023-11-22T16:35:55;8.80;56.70
13569;DHT22;6856;51.460;7.158;2023-11-22T16:38:30;8.90;56.70
13569;DHT22;6856;51.460;7.158;2023-11-22T16:41:05;8.80;56.70
13569;DHT22;6856;51.460;7.158;2023-11-22T16:43:43;8.80;56.70
13569;DHT22;6856;51.460;7.158;2023-11-22T16:46:17;8.80;56.80
13569;DHT22;6856;51.460;7.158;2023-11-22T16:48:51;8.80;56.80
13569;DHT22;6856;51.460;7.158;2023-11-22T16:51:26;8.80;56.80
13569;DHT22;6856;51.460;7.158;2023-11-22T16:54:03;8.80;56.80